PWSweather.com
Personal Weather Stations
Station Observations
CANDIOTINO
Barrio Candioti Norte, Santa FeAR 3000

Barrio Candioti NorteSanta FeAR 3000

Lat: -31.632778, Lon: -60.695556

Elevation: 69

Station Type: WH-1081

http://www.eltiempoensantafe.com.ar

High Low Average
Temperature 88.3°F31.3°C 54.7°F12.6°C 70.0°F21.1°C
Dew Point 52.3°F11.3°C 34.6°F1.4°C 44.4°F6.9°C
Winds 8.3 mph 13.4 kmh Calm Calm 2.0 mph E3.2 kmh E
Wind Gusts 13.0 mph20.9 kmh 0.7 mph1.1 kmh 5.0 mph8.0 kmh
Humidity 68% 16% 43%
Pressure 30.11 in1019.6 mb 29.98 in1015.2 mb -
Precipitation 0.00 in0.0 mm - -
Hour Temp Dew Point Humidity Winds Wind Gusts Pressure Precip Precip Rate Daily Precip Total
12:00 AM 62.1°F16.7°C 44.7°F7.1°C 53% 0.7 mph E1.1 kmh E 4.5 mph7.2 kmh 30.07 in1018.3 mb 0.00 in0.0 mm 0.00 in0.0 mm 0.00 in0.0 mm
12:15 AM 61.7°F16.5°C 44.9°F7.2°C 54% 1.6 mph E2.6 kmh E 3.8 mph6.1 kmh 30.07 in1018.3 mb 0.00 in0.0 mm 0.00 in0.0 mm 0.00 in0.0 mm
12:30 AM 61.2°F16.2°C 45.4°F7.4°C 56% Calm Calm 2.2 mph3.5 kmh 30.07 in1018.3 mb 0.00 in0.0 mm 0.00 in0.0 mm 0.00 in0.0 mm
12:45 AM 60.3°F15.7°C 45.0°F7.2°C 57% Calm Calm 1.6 mph2.6 kmh 30.07 in1018.3 mb 0.00 in0.0 mm 0.00 in0.0 mm 0.00 in0.0 mm
01:00 AM 60.6°F15.9°C 45.3°F7.4°C 57% 0.7 mph NE1.1 kmh NE 2.2 mph3.5 kmh 30.07 in1018.3 mb 0.00 in0.0 mm 0.00 in0.0 mm 0.00 in0.0 mm
01:15 AM 60.8°F16.0°C 45.0°F7.2°C 56% Calm Calm 2.2 mph3.5 kmh 30.07 in1018.3 mb 0.00 in0.0 mm 0.00 in0.0 mm 0.00 in0.0 mm
01:30 AM 61.0°F16.1°C 45.2°F7.3°C 56% 0.7 mph ENE1.1 kmh ENE 3.1 mph5.0 kmh 30.08 in1018.6 mb 0.00 in0.0 mm 0.00 in0.0 mm 0.00 in0.0 mm
01:45 AM 61.0°F16.1°C 45.7°F7.6°C 57% 3.1 mph E5.0 kmh E 5.4 mph8.7 kmh 30.07 in1018.3 mb 0.00 in0.0 mm 0.00 in0.0 mm 0.00 in0.0 mm
02:00 AM 60.6°F15.9°C 44.9°F7.2°C 56% 2.2 mph SE3.5 kmh SE 4.5 mph7.2 kmh 30.07 in1018.3 mb 0.00 in0.0 mm 0.00 in0.0 mm 0.00 in0.0 mm
02:15 AM 59.7°F15.4°C 44.5°F6.9°C 57% 0.7 mph ESE1.1 kmh ESE 4.5 mph7.2 kmh 30.07 in1018.3 mb 0.00 in0.0 mm 0.00 in0.0 mm 0.00 in0.0 mm
02:30 AM 58.8°F14.9°C 45.8°F7.7°C 62% Calm Calm 3.1 mph5.0 kmh 30.06 in1017.9 mb 0.00 in0.0 mm 0.00 in0.0 mm 0.00 in0.0 mm
02:45 AM 58.6°F14.8°C 46.5°F8.1°C 64% 0.7 mph ESE1.1 kmh ESE 2.2 mph3.5 kmh 30.06 in1017.9 mb 0.00 in0.0 mm 0.00 in0.0 mm 0.00 in0.0 mm
03:00 AM 58.3°F14.6°C 46.2°F7.9°C 64% 0.7 mph SE1.1 kmh SE 2.2 mph3.5 kmh 30.05 in1017.6 mb 0.00 in0.0 mm 0.00 in0.0 mm 0.00 in0.0 mm
03:15 AM 58.3°F14.6°C 45.8°F7.7°C 63% Calm Calm 2.2 mph3.5 kmh 30.04 in1017.3 mb 0.00 in0.0 mm 0.00 in0.0 mm 0.00 in0.0 mm
03:30 AM 57.6°F14.2°C 45.5°F7.5°C 64% Calm Calm 2.2 mph3.5 kmh 30.04 in1017.3 mb 0.00 in0.0 mm 0.00 in0.0 mm 0.00 in0.0 mm
03:45 AM 57.2°F14.0°C 45.1°F7.3°C 64% 1.6 mph SE2.6 kmh SE 2.2 mph3.5 kmh 30.04 in1017.3 mb 0.00 in0.0 mm 0.00 in0.0 mm 0.00 in0.0 mm
04:00 AM 57.4°F14.1°C 45.3°F7.4°C 64% 1.6 mph SSE2.6 kmh SSE 3.1 mph5.0 kmh 30.04 in1017.3 mb 0.00 in0.0 mm 0.00 in0.0 mm 0.00 in0.0 mm
04:15 AM 57.2°F14.0°C 45.1°F7.3°C 64% 1.6 mph SE2.6 kmh SE 2.2 mph3.5 kmh 30.05 in1017.6 mb 0.00 in0.0 mm 0.00 in0.0 mm 0.00 in0.0 mm
04:30 AM 57.0°F13.9°C 46.6°F8.1°C 68% 3.1 mph SE5.0 kmh SE 4.5 mph7.2 kmh 30.04 in1017.3 mb 0.00 in0.0 mm 0.00 in0.0 mm 0.00 in0.0 mm
04:45 AM 56.8°F13.8°C 46.4°F8.0°C 68% 2.2 mph SE3.5 kmh SE 6.0 mph9.7 kmh 30.05 in1017.6 mb 0.00 in0.0 mm 0.00 in0.0 mm 0.00 in0.0 mm
05:00 AM 57.0°F13.9°C 45.4°F7.4°C 65% 3.1 mph SE5.0 kmh SE 6.0 mph9.7 kmh 30.05 in1017.6 mb 0.00 in0.0 mm 0.00 in0.0 mm 0.00 in0.0 mm
05:15 AM 57.0°F13.9°C 45.4°F7.4°C 65% 3.8 mph SE6.1 kmh SE 6.0 mph9.7 kmh 30.05 in1017.6 mb 0.00 in0.0 mm 0.00 in0.0 mm 0.00 in0.0 mm
05:30 AM 57.0°F13.9°C 45.4°F7.4°C 65% 1.6 mph ESE2.6 kmh ESE 6.9 mph11.1 kmh 30.05 in1017.6 mb 0.00 in0.0 mm 0.00 in0.0 mm 0.00 in0.0 mm
05:45 AM 56.7°F13.7°C 45.0°F7.2°C 65% 0.7 mph ESE1.1 kmh ESE 5.4 mph8.7 kmh 30.06 in1017.9 mb 0.00 in0.0 mm 0.00 in0.0 mm 0.00 in0.0 mm
06:00 AM 56.1°F13.4°C 43.7°F6.5°C 63% 1.6 mph ESE2.6 kmh ESE 4.5 mph7.2 kmh 30.06 in1017.9 mb 0.00 in0.0 mm 0.00 in0.0 mm 0.00 in0.0 mm
06:15 AM 55.9°F13.3°C 43.1°F6.2°C 62% 3.8 mph E6.1 kmh E 6.0 mph9.7 kmh 30.06 in1017.9 mb 0.00 in0.0 mm 0.00 in0.0 mm 0.00 in0.0 mm
06:30 AM 55.6°F13.1°C 43.2°F6.2°C 63% 1.6 mph E2.6 kmh E 5.4 mph8.7 kmh 30.07 in1018.3 mb 0.00 in0.0 mm 0.00 in0.0 mm 0.00 in0.0 mm
06:45 AM 55.2°F12.9°C 43.3°F6.3°C 64% 2.2 mph E3.5 kmh E 5.4 mph8.7 kmh 30.08 in1018.6 mb 0.00 in0.0 mm 0.00 in0.0 mm 0.00 in0.0 mm
07:00 AM 54.7°F12.6°C 42.8°F6.0°C 64% 0.7 mph ESE1.1 kmh ESE 3.1 mph5.0 kmh 30.07 in1018.3 mb 0.00 in0.0 mm 0.00 in0.0 mm 0.00 in0.0 mm
07:15 AM 54.7°F12.6°C 42.8°F6.0°C 64% 1.6 mph ESE2.6 kmh ESE 5.4 mph8.7 kmh 30.08 in1018.6 mb 0.00 in0.0 mm 0.00 in0.0 mm 0.00 in0.0 mm
07:30 AM 54.7°F12.6°C 43.2°F6.2°C 65% 3.1 mph E5.0 kmh E 6.9 mph11.1 kmh 30.08 in1018.6 mb 0.00 in0.0 mm 0.00 in0.0 mm 0.00 in0.0 mm
07:45 AM 56.1°F13.4°C 44.5°F6.9°C 65% 2.2 mph ESE3.5 kmh ESE 6.0 mph9.7 kmh 30.09 in1019.0 mb 0.00 in0.0 mm 0.00 in0.0 mm 0.00 in0.0 mm
08:00 AM 58.3°F14.6°C 45.3°F7.4°C 62% 2.2 mph E3.5 kmh E 6.0 mph9.7 kmh 30.09 in1019.0 mb 0.00 in0.0 mm 0.00 in0.0 mm 0.00 in0.0 mm
08:15 AM 60.6°F15.9°C 46.2°F7.9°C 59% 0.7 mph E1.1 kmh E 5.4 mph8.7 kmh 30.09 in1019.0 mb 0.00 in0.0 mm 0.00 in0.0 mm 0.00 in0.0 mm
08:30 AM 62.6°F17.0°C 44.7°F7.1°C 52% 1.6 mph E2.6 kmh E 5.4 mph8.7 kmh 30.10 in1019.3 mb 0.00 in0.0 mm 0.00 in0.0 mm 0.00 in0.0 mm
08:45 AM 64.2°F17.9°C 45.7°F7.6°C 51% 0.7 mph NE1.1 kmh NE 3.8 mph6.1 kmh 30.11 in1019.6 mb 0.00 in0.0 mm 0.00 in0.0 mm 0.00 in0.0 mm
09:00 AM 65.7°F18.7°C 46.0°F7.8°C 49% 2.2 mph ENE3.5 kmh ENE 5.4 mph8.7 kmh 30.11 in1019.6 mb 0.00 in0.0 mm 0.00 in0.0 mm 0.00 in0.0 mm
09:15 AM 67.1°F19.5°C 46.2°F7.9°C 47% 0.7 mph E1.1 kmh E 4.5 mph7.2 kmh 30.11 in1019.6 mb 0.00 in0.0 mm 0.00 in0.0 mm 0.00 in0.0 mm
09:30 AM 69.6°F20.9°C 46.8°F8.2°C 44% 3.1 mph E5.0 kmh E 5.4 mph8.7 kmh 30.11 in1019.6 mb 0.00 in0.0 mm 0.00 in0.0 mm 0.00 in0.0 mm
09:45 AM 67.8°F19.9°C 46.3°F7.9°C 46% 1.6 mph ENE2.6 kmh ENE 5.4 mph8.7 kmh 30.10 in1019.3 mb 0.00 in0.0 mm 0.00 in0.0 mm 0.00 in0.0 mm
10:00 AM 68.7°F20.4°C 45.9°F7.7°C 44% 3.1 mph N5.0 kmh N 5.4 mph8.7 kmh 30.11 in1019.6 mb 0.00 in0.0 mm 0.00 in0.0 mm 0.00 in0.0 mm
10:15 AM 68.9°F20.5°C 46.7°F8.2°C 45% 1.6 mph N2.6 kmh N 6.9 mph11.1 kmh 30.11 in1019.6 mb 0.00 in0.0 mm 0.00 in0.0 mm 0.00 in0.0 mm
10:30 AM 71.8°F22.1°C 48.1°F8.9°C 43% 1.6 mph NE2.6 kmh NE 4.5 mph7.2 kmh 30.10 in1019.3 mb 0.00 in0.0 mm 0.00 in0.0 mm 0.00 in0.0 mm
10:45 AM 73.6°F23.1°C 50.4°F10.2°C 44% 1.6 mph WNW2.6 kmh WNW 4.5 mph7.2 kmh 30.11 in1019.6 mb 0.00 in0.0 mm 0.00 in0.0 mm 0.00 in0.0 mm
11:00 AM 72.5°F22.5°C 48.8°F9.3°C 43% 1.6 mph E2.6 kmh E 5.4 mph8.7 kmh 30.11 in1019.6 mb 0.00 in0.0 mm 0.00 in0.0 mm 0.00 in0.0 mm
11:15 AM 74.7°F23.7°C 51.3°F10.7°C 44% 1.6 mph NE2.6 kmh NE 4.5 mph7.2 kmh 30.10 in1019.3 mb 0.00 in0.0 mm 0.00 in0.0 mm 0.00 in0.0 mm
11:30 AM 75.7°F24.3°C 52.3°F11.3°C 44% 2.2 mph ESE3.5 kmh ESE 4.5 mph7.2 kmh 30.10 in1019.3 mb 0.00 in0.0 mm 0.00 in0.0 mm 0.00 in0.0 mm
11:45 AM 76.5°F24.7°C 50.4°F10.2°C 40% 0.7 mph E1.1 kmh E 3.8 mph6.1 kmh 30.09 in1019.0 mb 0.00 in0.0 mm 0.00 in0.0 mm 0.00 in0.0 mm
12:00 PM 77.4°F25.2°C 43.5°F6.4°C 30% 0.7 mph E1.1 kmh E 3.8 mph6.1 kmh 30.09 in1019.0 mb 0.00 in0.0 mm 0.00 in0.0 mm 0.00 in0.0 mm
12:15 PM 78.6°F25.9°C 45.5°F7.5°C 31% 0.7 mph ESE1.1 kmh ESE 5.4 mph8.7 kmh 30.09 in1019.0 mb 0.00 in0.0 mm 0.00 in0.0 mm 0.00 in0.0 mm
12:30 PM 79.9°F26.6°C 47.4°F8.6°C 32% 2.2 mph NE3.5 kmh NE 4.5 mph7.2 kmh 30.08 in1018.6 mb 0.00 in0.0 mm 0.00 in0.0 mm 0.00 in0.0 mm
12:45 PM 79.2°F26.2°C 47.6°F8.7°C 33% 2.2 mph ESE3.5 kmh ESE 5.4 mph8.7 kmh 30.07 in1018.3 mb 0.00 in0.0 mm 0.00 in0.0 mm 0.00 in0.0 mm
01:00 PM 79.0°F26.1°C 48.3°F9.1°C 34% 3.1 mph SE5.0 kmh SE 7.6 mph12.2 kmh 30.07 in1018.3 mb 0.00 in0.0 mm 0.00 in0.0 mm 0.00 in0.0 mm
01:15 PM 78.3°F25.7°C 47.6°F8.7°C 34% 6.0 mph SE9.7 kmh SE 9.8 mph15.8 kmh 30.07 in1018.3 mb 0.00 in0.0 mm 0.00 in0.0 mm 0.00 in0.0 mm
01:30 PM 79.0°F26.1°C 44.9°F7.2°C 30% 4.5 mph SSE7.2 kmh SSE 10.7 mph17.2 kmh 30.06 in1017.9 mb 0.00 in0.0 mm 0.00 in0.0 mm 0.00 in0.0 mm
01:45 PM 81.5°F27.5°C 42.3°F5.7°C 25% 3.8 mph E6.1 kmh E 7.6 mph12.2 kmh 30.05 in1017.6 mb 0.00 in0.0 mm 0.00 in0.0 mm 0.00 in0.0 mm
02:00 PM 81.0°F27.2°C 41.9°F5.5°C 25% 6.0 mph SE9.7 kmh SE 9.8 mph15.8 kmh 30.04 in1017.3 mb 0.00 in0.0 mm 0.00 in0.0 mm 0.00 in0.0 mm
02:15 PM 80.6°F27.0°C 42.6°F5.9°C 26% 5.4 mph SSE8.7 kmh SSE 9.8 mph15.8 kmh 30.04 in1017.3 mb 0.00 in0.0 mm 0.00 in0.0 mm 0.00 in0.0 mm
02:30 PM 82.0°F27.8°C 40.6°F4.8°C 23% 6.9 mph SE11.1 kmh SE 10.7 mph17.2 kmh 30.04 in1017.3 mb 0.00 in0.0 mm 0.00 in0.0 mm 0.00 in0.0 mm
02:45 PM 83.3°F28.5°C 44.9°F7.2°C 26% 3.1 mph ESE5.0 kmh ESE 10.7 mph17.2 kmh 30.02 in1016.6 mb 0.00 in0.0 mm 0.00 in0.0 mm 0.00 in0.0 mm
03:00 PM 84.4°F29.1°C 43.7°F6.5°C 24% 3.8 mph SE6.1 kmh SE 9.2 mph14.8 kmh 30.01 in1016.3 mb 0.00 in0.0 mm 0.00 in0.0 mm 0.00 in0.0 mm
03:15 PM 83.5°F28.6°C 44.0°F6.7°C 25% 5.4 mph SE8.7 kmh SE 13.0 mph20.9 kmh 30.01 in1016.3 mb 0.00 in0.0 mm 0.00 in0.0 mm 0.00 in0.0 mm
03:30 PM 83.8°F28.8°C 41.0°F5.0°C 22% 6.0 mph ESE9.7 kmh ESE 10.7 mph17.2 kmh 30.00 in1015.9 mb 0.00 in0.0 mm 0.00 in0.0 mm 0.00 in0.0 mm
03:45 PM 84.9°F29.4°C 41.9°F5.5°C 22% 7.6 mph SE12.2 kmh SE 12.1 mph19.5 kmh 30.00 in1015.9 mb 0.00 in0.0 mm 0.00 in0.0 mm 0.00 in0.0 mm
04:00 PM 85.3°F29.6°C 41.0°F5.0°C 21% 6.0 mph SE9.7 kmh SE 12.1 mph19.5 kmh 30.00 in1015.9 mb 0.00 in0.0 mm 0.00 in0.0 mm 0.00 in0.0 mm
04:15 PM 85.5°F29.7°C 41.1°F5.1°C 21% 8.3 mph ESE13.4 kmh ESE 10.7 mph17.2 kmh 29.99 in1015.6 mb 0.00 in0.0 mm 0.00 in0.0 mm 0.00 in0.0 mm
04:30 PM 85.3°F29.6°C 42.2°F5.7°C 22% 3.1 mph ESE5.0 kmh ESE 9.8 mph15.8 kmh 29.98 in1015.2 mb 0.00 in0.0 mm 0.00 in0.0 mm 0.00 in0.0 mm
04:45 PM 85.8°F29.9°C 40.2°F4.6°C 20% 4.5 mph E7.2 kmh E 7.6 mph12.2 kmh 29.98 in1015.2 mb 0.00 in0.0 mm 0.00 in0.0 mm 0.00 in0.0 mm
05:00 PM 86.0°F30.0°C 34.6°F1.4°C 16% 4.5 mph SE7.2 kmh SE 10.7 mph17.2 kmh 29.98 in1015.2 mb 0.00 in0.0 mm 0.00 in0.0 mm 0.00 in0.0 mm
05:15 PM 87.4°F30.8°C 35.8°F2.1°C 16% 3.1 mph SE5.0 kmh SE 6.9 mph11.1 kmh 29.98 in1015.2 mb 0.00 in0.0 mm 0.00 in0.0 mm 0.00 in0.0 mm
05:30 PM 87.6°F30.9°C 37.5°F3.1°C 17% 1.6 mph ESE2.6 kmh ESE 6.0 mph9.7 kmh 29.99 in1015.6 mb 0.00 in0.0 mm 0.00 in0.0 mm 0.00 in0.0 mm
05:45 PM 88.3°F31.3°C 39.5°F4.2°C 18% 0.7 mph ENE1.1 kmh ENE 6.0 mph9.7 kmh 29.98 in1015.2 mb 0.00 in0.0 mm 0.00 in0.0 mm 0.00 in0.0 mm
06:00 PM 88.2°F31.2°C 40.8°F4.9°C 19% 3.8 mph ESE6.1 kmh ESE 6.0 mph9.7 kmh 29.98 in1015.2 mb 0.00 in0.0 mm 0.00 in0.0 mm 0.00 in0.0 mm
06:15 PM 86.2°F30.1°C 39.1°F3.9°C 19% 2.2 mph E3.5 kmh E 5.4 mph8.7 kmh 29.99 in1015.6 mb 0.00 in0.0 mm 0.00 in0.0 mm 0.00 in0.0 mm
06:30 PM 84.0°F28.9°C 39.9°F4.4°C 21% 1.6 mph E2.6 kmh E 4.5 mph7.2 kmh 29.99 in1015.6 mb 0.00 in0.0 mm 0.00 in0.0 mm 0.00 in0.0 mm
06:45 PM 82.6°F28.1°C 42.2°F5.7°C 24% 1.6 mph ESE2.6 kmh ESE 3.1 mph5.0 kmh 29.99 in1015.6 mb 0.00 in0.0 mm 0.00 in0.0 mm 0.00 in0.0 mm
07:00 PM 79.2°F26.2°C 37.1°F2.8°C 22% 0.7 mph ESE1.1 kmh ESE 3.1 mph5.0 kmh 30.00 in1015.9 mb 0.00 in0.0 mm 0.00 in0.0 mm 0.00 in0.0 mm
07:15 PM 78.1°F25.6°C 38.4°F3.6°C 24% 1.6 mph ESE2.6 kmh ESE 4.5 mph7.2 kmh 30.00 in1015.9 mb 0.00 in0.0 mm 0.00 in0.0 mm 0.00 in0.0 mm
07:30 PM 76.8°F24.9°C 40.3°F4.6°C 27% Calm Calm 2.2 mph3.5 kmh 30.00 in1015.9 mb 0.00 in0.0 mm 0.00 in0.0 mm 0.00 in0.0 mm
07:45 PM 75.7°F24.3°C 45.4°F7.4°C 34% 0.7 mph SE1.1 kmh SE 3.1 mph5.0 kmh 30.00 in1015.9 mb 0.00 in0.0 mm 0.00 in0.0 mm 0.00 in0.0 mm
08:00 PM 74.8°F23.8°C 45.4°F7.4°C 35% 0.7 mph SE1.1 kmh SE 2.2 mph3.5 kmh 30.01 in1016.3 mb 0.00 in0.0 mm 0.00 in0.0 mm 0.00 in0.0 mm
08:15 PM 73.4°F23.0°C 45.6°F7.6°C 37% Calm Calm 0.7 mph1.1 kmh 30.01 in1016.3 mb 0.00 in0.0 mm 0.00 in0.0 mm 0.00 in0.0 mm
08:30 PM 72.7°F22.6°C 48.3°F9.1°C 42% Calm Calm 2.2 mph3.5 kmh 30.02 in1016.6 mb 0.00 in0.0 mm 0.00 in0.0 mm 0.00 in0.0 mm
08:45 PM 72.1°F22.3°C 49.0°F9.4°C 44% 0.7 mph SE1.1 kmh SE 3.1 mph5.0 kmh 30.02 in1016.6 mb 0.00 in0.0 mm 0.00 in0.0 mm 0.00 in0.0 mm
09:00 PM 72.3°F22.4°C 47.3°F8.5°C 41% 1.6 mph SE2.6 kmh SE 3.8 mph6.1 kmh 30.03 in1016.9 mb 0.00 in0.0 mm 0.00 in0.0 mm 0.00 in0.0 mm
09:15 PM 72.1°F22.3°C 45.8°F7.7°C 39% 1.6 mph SE2.6 kmh SE 3.8 mph6.1 kmh 30.03 in1016.9 mb 0.00 in0.0 mm 0.00 in0.0 mm 0.00 in0.0 mm
09:30 PM 71.8°F22.1°C 44.8°F7.1°C 38% 2.2 mph ESE3.5 kmh ESE 3.8 mph6.1 kmh 30.03 in1016.9 mb 0.00 in0.0 mm 0.00 in0.0 mm 0.00 in0.0 mm
09:45 PM 71.2°F21.8°C 42.9°F6.1°C 36% 2.2 mph ESE3.5 kmh ESE 4.5 mph7.2 kmh 30.04 in1017.3 mb 0.00 in0.0 mm 0.00 in0.0 mm 0.00 in0.0 mm
10:00 PM 70.7°F21.5°C 44.6°F7.0°C 39% 1.6 mph ESE2.6 kmh ESE 3.1 mph5.0 kmh 30.04 in1017.3 mb 0.00 in0.0 mm 0.00 in0.0 mm 0.00 in0.0 mm
10:15 PM 70.0°F21.1°C 43.9°F6.6°C 39% 3.1 mph ESE5.0 kmh ESE 6.0 mph9.7 kmh 30.04 in1017.3 mb 0.00 in0.0 mm 0.00 in0.0 mm 0.00 in0.0 mm
10:30 PM 69.6°F20.9°C 43.6°F6.4°C 39% 3.1 mph SE5.0 kmh SE 6.0 mph9.7 kmh 30.05 in1017.6 mb 0.00 in0.0 mm 0.00 in0.0 mm 0.00 in0.0 mm
10:45 PM 68.9°F20.5°C 45.5°F7.5°C 43% 1.6 mph ESE2.6 kmh ESE 3.1 mph5.0 kmh 30.05 in1017.6 mb 0.00 in0.0 mm 0.00 in0.0 mm 0.00 in0.0 mm
11:00 PM 68.5°F20.3°C 45.2°F7.3°C 43% 0.7 mph ESE1.1 kmh ESE 4.5 mph7.2 kmh 30.05 in1017.6 mb 0.00 in0.0 mm 0.00 in0.0 mm 0.00 in0.0 mm
11:15 PM 67.6°F19.8°C 45.6°F7.6°C 45% 0.7 mph E1.1 kmh E 3.8 mph6.1 kmh 30.06 in1017.9 mb 0.00 in0.0 mm 0.00 in0.0 mm 0.00 in0.0 mm
11:30 PM 67.1°F19.5°C 44.5°F6.9°C 44% 0.7 mph E1.1 kmh E 3.8 mph6.1 kmh 30.06 in1017.9 mb 0.00 in0.0 mm 0.00 in0.0 mm 0.00 in0.0 mm
11:45 PM 67.5°F19.7°C 43.6°F6.4°C 42% Calm Calm 5.4 mph8.7 kmh 30.06 in1017.9 mb 0.00 in0.0 mm 0.00 in0.0 mm 0.00 in0.0 mm